sensor_id;sensor_type;location;lat;lon;timestamp;temperature;humidity
12166;DHT22;6146;48.128;11.476;2023-11-21T00:00:44;7.50;99.90
12166;DHT22;6146;48.128;11.476;2023-11-21T00:03:11;7.60;99.90
12166;DHT22;6146;48.128;11.476;2023-11-21T00:05:40;7.60;99.90
12166;DHT22;6146;48.128;11.476;2023-11-21T00:08:07;7.60;99.90
12166;DHT22;6146;48.128;11.476;2023-11-21T00:10:33;7.50;99.90
12166;DHT22;6146;48.128;11.476;2023-11-21T00:12:59;7.50;99.90
12166;DHT22;6146;48.128;11.476;2023-11-21T00:15:25;7.50;99.90
12166;DHT22;6146;48.128;11.476;2023-11-21T00:17:51;7.50;99.90
12166;DHT22;6146;48.128;11.476;2023-11-21T00:20:17;7.50;99.90
12166;DHT22;6146;48.128;11.476;2023-11-21T00:22:42;7.40;99.90
12166;DHT22;6146;48.128;11.476;2023-11-21T00:25:08;7.40;99.90
12166;DHT22;6146;48.128;11.476;2023-11-21T00:27:35;7.40;99.90
12166;DHT22;6146;48.128;11.476;2023-11-21T00:30:01;7.40;99.90
12166;DHT22;6146;48.128;11.476;2023-11-21T00:32:26;7.40;99.90
12166;DHT22;6146;48.128;11.476;2023-11-21T00:34:52;7.40;99.90
12166;DHT22;6146;48.128;11.476;2023-11-21T00:37:17;7.40;99.90
12166;DHT22;6146;48.128;11.476;2023-11-21T00:39:43;7.30;99.90
12166;DHT22;6146;48.128;11.476;2023-11-21T00:42:08;7.30;99.90
12166;DHT22;6146;48.128;11.476;2023-11-21T00:44:38;7.30;99.90
12166;DHT22;6146;48.128;11.476;2023-11-21T00:47:04;7.30;99.90
12166;DHT22;6146;48.128;11.476;2023-11-21T00:49:29;7.30;99.90
12166;DHT22;6146;48.128;11.476;2023-11-21T00:51:55;7.30;99.90
12166;DHT22;6146;48.128;11.476;2023-11-21T00:54:21;7.30;99.90
12166;DHT22;6146;48.128;11.476;2023-11-21T00:56:46;7.30;99.90
12166;DHT22;6146;48.128;11.476;2023-11-21T00:59:13;7.20;99.90
12166;DHT22;6146;48.128;11.476;2023-11-21T01:01:39;7.20;99.90
12166;DHT22;6146;48.128;11.476;2023-11-21T01:04:04;7.20;99.90
12166;DHT22;6146;48.128;11.476;2023-11-21T01:06:32;7.20;99.90
12166;DHT22;6146;48.128;11.476;2023-11-21T01:08:58;7.20;99.90
12166;DHT22;6146;48.128;11.476;2023-11-21T01:11:23;7.10;99.90
12166;DHT22;6146;48.128;11.476;2023-11-21T01:13:49;7.00;99.90
12166;DHT22;6146;48.128;11.476;2023-11-21T01:16:14;7.00;99.90
12166;DHT22;6146;48.128;11.476;2023-11-21T01:18:40;6.90;99.90
12166;DHT22;6146;48.128;11.476;2023-11-21T01:21:05;6.90;99.90
12166;DHT22;6146;48.128;11.476;2023-11-21T01:23:32;6.90;99.90
12166;DHT22;6146;48.128;11.476;2023-11-21T01:25:58;6.90;99.90
12166;DHT22;6146;48.128;11.476;2023-11-21T01:28:24;6.90;99.90
12166;DHT22;6146;48.128;11.476;2023-11-21T01:30:49;6.80;99.90
12166;DHT22;6146;48.128;11.476;2023-11-21T01:33:15;6.80;99.90
12166;DHT22;6146;48.128;11.476;2023-11-21T01:35:44;6.70;99.90
12166;DHT22;6146;48.128;11.476;2023-11-21T01:38:11;6.80;99.90
12166;DHT22;6146;48.128;11.476;2023-11-21T01:40:37;6.80;99.90
12166;DHT22;6146;48.128;11.476;2023-11-21T01:43:03;6.70;99.90
12166;DHT22;6146;48.128;11.476;2023-11-21T01:45:29;6.70;99.90
12166;DHT22;6146;48.128;11.476;2023-11-21T01:47:56;6.80;99.90
12166;DHT22;6146;48.128;11.476;2023-11-21T01:50:24;6.80;99.90
12166;DHT22;6146;48.128;11.476;2023-11-21T01:52:50;6.70;99.90
12166;DHT22;6146;48.128;11.476;2023-11-21T01:55:17;6.70;99.90
12166;DHT22;6146;48.128;11.476;2023-11-21T01:57:46;6.70;99.90
12166;DHT22;6146;48.128;11.476;2023-11-21T02:00:12;6.90;99.90
12166;DHT22;6146;48.128;11.476;2023-11-21T02:02:45;6.90;99.90
12166;DHT22;6146;48.128;11.476;2023-11-21T02:05:12;7.00;99.90
12166;DHT22;6146;48.128;11.476;2023-11-21T02:07:41;7.10;99.90
12166;DHT22;6146;48.128;11.476;2023-11-21T02:10:08;7.10;99.90
12166;DHT22;6146;48.128;11.476;2023-11-21T02:12:34;7.20;99.90
12166;DHT22;6146;48.128;11.476;2023-11-21T02:15:04;7.20;99.90
12166;DHT22;6146;48.128;11.476;2023-11-21T02:17:35;7.20;99.90
12166;DHT22;6146;48.128;11.476;2023-11-21T02:20:00;7.20;99.90
12166;DHT22;6146;48.128;11.476;2023-11-21T02:22:30;7.20;99.90
12166;DHT22;6146;48.128;11.476;2023-11-21T02:24:56;7.20;99.90
12166;DHT22;6146;48.128;11.476;2023-11-21T02:27:23;7.30;99.90
12166;DHT22;6146;48.128;11.476;2023-11-21T02:29:49;7.20;99.90
12166;DHT22;6146;48.128;11.476;2023-11-21T02:32:14;7.20;99.90
12166;DHT22;6146;48.128;11.476;2023-11-21T02:34:42;7.20;99.90
12166;DHT22;6146;48.128;11.476;2023-11-21T02:37:08;7.20;99.90
12166;DHT22;6146;48.128;11.476;2023-11-21T02:39:35;7.20;99.90
12166;DHT22;6146;48.128;11.476;2023-11-21T02:42:00;7.20;99.90
12166;DHT22;6146;48.128;11.476;2023-11-21T02:44:26;7.20;99.90
12166;DHT22;6146;48.128;11.476;2023-11-21T02:46:52;7.20;99.90
12166;DHT22;6146;48.128;11.476;2023-11-21T02:49:17;7.10;99.90
12166;DHT22;6146;48.128;11.476;2023-11-21T02:51:43;7.10;99.90
12166;DHT22;6146;48.128;11.476;2023-11-21T02:54:09;7.20;99.90
12166;DHT22;6146;48.128;11.476;2023-11-21T02:56:34;7.20;99.90
12166;DHT22;6146;48.128;11.476;2023-11-21T02:59:00;7.20;99.90
12166;DHT22;6146;48.128;11.476;2023-11-21T03:01:26;7.20;99.90
12166;DHT22;6146;48.128;11.476;2023-11-21T03:03:52;7.20;99.90
12166;DHT22;6146;48.128;11.476;2023-11-21T03:06:19;7.20;99.90
12166;DHT22;6146;48.128;11.476;2023-11-21T03:08:45;7.20;99.90
12166;DHT22;6146;48.128;11.476;2023-11-21T03:11:11;7.20;99.90
12166;DHT22;6146;48.128;11.476;2023-11-21T03:13:41;7.10;99.90
12166;DHT22;6146;48.128;11.476;2023-11-21T03:16:10;7.20;99.90
12166;DHT22;6146;48.128;11.476;2023-11-21T03:18:39;7.10;99.90
12166;DHT22;6146;48.128;11.476;2023-11-21T03:21:05;7.10;99.90
12166;DHT22;6146;48.128;11.476;2023-11-21T03:23:33;7.20;99.90
12166;DHT22;6146;48.128;11.476;2023-11-21T03:25:58;7.20;99.90
12166;DHT22;6146;48.128;11.476;2023-11-21T03:28:25;7.20;99.90
12166;DHT22;6146;48.128;11.476;2023-11-21T03:30:52;7.10;99.90
12166;DHT22;6146;48.128;11.476;2023-11-21T03:33:17;7.10;99.90
12166;DHT22;6146;48.128;11.476;2023-11-21T03:35:43;7.10;99.90
12166;DHT22;6146;48.128;11.476;2023-11-21T03:38:10;7.10;99.90
12166;DHT22;6146;48.128;11.476;2023-11-21T03:40:36;7.10;99.90
12166;DHT22;6146;48.128;11.476;2023-11-21T03:43:01;7.10;99.90
12166;DHT22;6146;48.128;11.476;2023-11-21T03:45:27;7.00;99.90
12166;DHT22;6146;48.128;11.476;2023-11-21T03:47:52;7.00;99.90
12166;DHT22;6146;48.128;11.476;2023-11-21T03:50:18;7.10;99.90
12166;DHT22;6146;48.128;11.476;2023-11-21T03:52:43;7.00;99.90
12166;DHT22;6146;48.128;11.476;2023-11-21T03:55:09;7.00;99.90
12166;DHT22;6146;48.128;11.476;2023-11-21T03:57:36;6.90;99.90
12166;DHT22;6146;48.128;11.476;2023-11-21T04:00:02;6.90;99.90
12166;DHT22;6146;48.128;11.476;2023-11-21T04:02:29;6.90;99.90
12166;DHT22;6146;48.128;11.476;2023-11-21T04:04:57;6.80;99.90
12166;DHT22;6146;48.128;11.476;2023-11-21T04:07:22;6.80;99.90
12166;DHT22;6146;48.128;11.476;2023-11-21T04:09:48;6.80;99.90
12166;DHT22;6146;48.128;11.476;2023-11-21T04:12:13;6.80;99.90
12166;DHT22;6146;48.128;11.476;2023-11-21T04:14:39;6.80;99.90
12166;DHT22;6146;48.128;11.476;2023-11-21T04:17:05;6.80;99.90
12166;DHT22;6146;48.128;11.476;2023-11-21T04:19:30;6.90;99.90
12166;DHT22;6146;48.128;11.476;2023-11-21T04:21:56;7.00;99.90
12166;DHT22;6146;48.128;11.476;2023-11-21T04:24:21;6.90;99.90
12166;DHT22;6146;48.128;11.476;2023-11-21T04:26:47;7.00;99.90
12166;DHT22;6146;48.128;11.476;2023-11-21T04:29:12;7.00;99.90
12166;DHT22;6146;48.128;11.476;2023-11-21T04:31:38;7.00;99.90
12166;DHT22;6146;48.128;11.476;2023-11-21T04:34:04;7.00;99.90
12166;DHT22;6146;48.128;11.476;2023-11-21T04:36:30;7.00;99.90
12166;DHT22;6146;48.128;11.476;2023-11-21T04:38:56;6.10;99.90
12166;DHT22;6146;48.128;11.476;2023-11-21T04:41:22;7.00;99.90
12166;DHT22;6146;48.128;11.476;2023-11-21T04:43:48;7.10;99.90
12166;DHT22;6146;48.128;11.476;2023-11-21T04:46:14;7.10;99.90
12166;DHT22;6146;48.128;11.476;2023-11-21T04:48:39;7.10;99.90
12166;DHT22;6146;48.128;11.476;2023-11-21T04:51:05;7.00;99.90
12166;DHT22;6146;48.128;11.476;2023-11-21T04:53:31;7.10;99.90
12166;DHT22;6146;48.128;11.476;2023-11-21T04:55:57;7.10;99.90
12166;DHT22;6146;48.128;11.476;2023-11-21T04:58:23;8.20;99.90
12166;DHT22;6146;48.128;11.476;2023-11-21T05:00:48;7.00;99.90
12166;DHT22;6146;48.128;11.476;2023-11-21T05:03:15;7.00;99.90
12166;DHT22;6146;48.128;11.476;2023-11-21T05:05:40;7.00;99.90
12166;DHT22;6146;48.128;11.476;2023-11-21T05:08:06;7.00;99.90
12166;DHT22;6146;48.128;11.476;2023-11-21T05:10:31;7.00;99.90
12166;DHT22;6146;48.128;11.476;2023-11-21T05:12:57;6.90;99.90
12166;DHT22;6146;48.128;11.476;2023-11-21T05:15:23;7.00;99.90
12166;DHT22;6146;48.128;11.476;2023-11-21T05:17:49;7.00;99.90
12166;DHT22;6146;48.128;11.476;2023-11-21T05:20:17;6.90;99.90
12166;DHT22;6146;48.128;11.476;2023-11-21T05:22:46;6.90;99.90
12166;DHT22;6146;48.128;11.476;2023-11-21T05:25:13;6.90;99.90
12166;DHT22;6146;48.128;11.476;2023-11-21T05:27:39;6.90;99.90
12166;DHT22;6146;48.128;11.476;2023-11-21T05:30:05;6.80;99.90
12166;DHT22;6146;48.128;11.476;2023-11-21T05:32:34;6.80;99.90
12166;DHT22;6146;48.128;11.476;2023-11-21T05:35:00;6.80;99.90
12166;DHT22;6146;48.128;11.476;2023-11-21T05:37:25;6.80;99.90
12166;DHT22;6146;48.128;11.476;2023-11-21T05:39:53;6.80;99.90
12166;DHT22;6146;48.128;11.476;2023-11-21T05:42:19;6.80;99.90
12166;DHT22;6146;48.128;11.476;2023-11-21T05:44:46;6.90;99.90
12166;DHT22;6146;48.128;11.476;2023-11-21T05:47:12;6.80;99.90
12166;DHT22;6146;48.128;11.476;2023-11-21T05:49:39;6.80;99.90
12166;DHT22;6146;48.128;11.476;2023-11-21T05:52:04;6.90;99.90
12166;DHT22;6146;48.128;11.476;2023-11-21T05:54:30;6.90;99.90
12166;DHT22;6146;48.128;11.476;2023-11-21T05:56:56;6.90;99.90
12166;DHT22;6146;48.128;11.476;2023-11-21T05:59:22;7.00;99.90
12166;DHT22;6146;48.128;11.476;2023-11-21T06:01:47;7.00;99.90
12166;DHT22;6146;48.128;11.476;2023-11-21T06:04:13;7.00;99.90
12166;DHT22;6146;48.128;11.476;2023-11-21T06:06:39;6.90;99.90
12166;DHT22;6146;48.128;11.476;2023-11-21T06:09:04;6.90;99.90
12166;DHT22;6146;48.128;11.476;2023-11-21T06:11:31;6.90;99.90
12166;DHT22;6146;48.128;11.476;2023-11-21T06:13:57;6.90;99.90
12166;DHT22;6146;48.128;11.476;2023-11-21T06:16:23;7.00;99.90
12166;DHT22;6146;48.128;11.476;2023-11-21T06:18:49;7.10;99.90
12166;DHT22;6146;48.128;11.476;2023-11-21T06:21:15;7.10;99.90
12166;DHT22;6146;48.128;11.476;2023-11-21T06:23:42;7.10;99.90
12166;DHT22;6146;48.128;11.476;2023-11-21T06:26:08;7.20;99.90
12166;DHT22;6146;48.128;11.476;2023-11-21T06:28:34;7.10;99.90
12166;DHT22;6146;48.128;11.476;2023-11-21T06:31:01;7.10;99.90
12166;DHT22;6146;48.128;11.476;2023-11-21T06:33:34;7.10;99.90
12166;DHT22;6146;48.128;11.476;2023-11-21T06:35:59;7.10;99.90
12166;DHT22;6146;48.128;11.476;2023-11-21T06:38:28;7.10;99.90
12166;DHT22;6146;48.128;11.476;2023-11-21T06:40:56;7.10;99.90
12166;DHT22;6146;48.128;11.476;2023-11-21T06:43:23;7.10;99.90
12166;DHT22;6146;48.128;11.476;2023-11-21T06:45:49;7.10;99.90
12166;DHT22;6146;48.128;11.476;2023-11-21T06:48:14;7.10;99.90
12166;DHT22;6146;48.128;11.476;2023-11-21T06:50:40;7.10;99.90
12166;DHT22;6146;48.128;11.476;2023-11-21T06:53:07;7.10;99.90
12166;DHT22;6146;48.128;11.476;2023-11-21T06:55:33;7.10;99.90
12166;DHT22;6146;48.128;11.476;2023-11-21T06:57:59;7.20;99.90
12166;DHT22;6146;48.128;11.476;2023-11-21T07:00:26;7.10;99.90
12166;DHT22;6146;48.128;11.476;2023-11-21T07:02:53;7.10;99.90
12166;DHT22;6146;48.128;11.476;2023-11-21T07:05:21;7.10;99.90
12166;DHT22;6146;48.128;11.476;2023-11-21T07:07:47;7.20;99.90
12166;DHT22;6146;48.128;11.476;2023-11-21T07:10:13;7.20;99.90
12166;DHT22;6146;48.128;11.476;2023-11-21T07:12:40;7.20;99.90
12166;DHT22;6146;48.128;11.476;2023-11-21T07:15:08;7.30;99.90
12166;DHT22;6146;48.128;11.476;2023-11-21T07:17:35;7.30;99.90
12166;DHT22;6146;48.128;11.476;2023-11-21T07:20:01;7.30;99.90
12166;DHT22;6146;48.128;11.476;2023-11-21T07:22:27;7.30;99.90
12166;DHT22;6146;48.128;11.476;2023-11-21T07:24:52;7.30;99.90
12166;DHT22;6146;48.128;11.476;2023-11-21T07:27:18;7.40;99.90
12166;DHT22;6146;48.128;11.476;2023-11-21T07:29:44;7.40;99.90
12166;DHT22;6146;48.128;11.476;2023-11-21T07:32:10;7.40;99.90
12166;DHT22;6146;48.128;11.476;2023-11-21T07:34:36;7.50;99.90
12166;DHT22;6146;48.128;11.476;2023-11-21T07:37:02;7.50;99.90
12166;DHT22;6146;48.128;11.476;2023-11-21T07:39:28;7.50;99.90
12166;DHT22;6146;48.128;11.476;2023-11-21T07:41:54;7.60;99.90
12166;DHT22;6146;48.128;11.476;2023-11-21T07:44:20;7.70;99.90
12166;DHT22;6146;48.128;11.476;2023-11-21T07:46:46;7.80;99.90
12166;DHT22;6146;48.128;11.476;2023-11-21T07:49:12;7.80;99.90
12166;DHT22;6146;48.128;11.476;2023-11-21T07:51:41;7.90;99.90
12166;DHT22;6146;48.128;11.476;2023-11-21T07:54:07;7.90;99.90
12166;DHT22;6146;48.128;11.476;2023-11-21T07:56:33;7.90;99.90
12166;DHT22;6146;48.128;11.476;2023-11-21T07:58:58;8.00;99.90
12166;DHT22;6146;48.128;11.476;2023-11-21T08:01:24;8.00;99.90
12166;DHT22;6146;48.128;11.476;2023-11-21T08:03:50;8.10;99.90
12166;DHT22;6146;48.128;11.476;2023-11-21T08:06:18;8.10;99.90
12166;DHT22;6146;48.128;11.476;2023-11-21T08:08:43;8.20;99.90
12166;DHT22;6146;48.128;11.476;2023-11-21T08:11:09;8.30;99.90
12166;DHT22;6146;48.128;11.476;2023-11-21T08:13:35;8.40;99.90
12166;DHT22;6146;48.128;11.476;2023-11-21T08:16:01;8.40;99.90
12166;DHT22;6146;48.128;11.476;2023-11-21T08:18:31;8.40;99.90
12166;DHT22;6146;48.128;11.476;2023-11-21T08:20:57;8.50;99.90
12166;DHT22;6146;48.128;11.476;2023-11-21T08:23:22;8.60;99.90
12166;DHT22;6146;48.128;11.476;2023-11-21T08:25:52;8.70;99.90
12166;DHT22;6146;48.128;11.476;2023-11-21T08:28:18;8.70;99.90
12166;DHT22;6146;48.128;11.476;2023-11-21T08:30:44;8.80;99.90
12166;DHT22;6146;48.128;11.476;2023-11-21T08:33:10;8.80;99.90
12166;DHT22;6146;48.128;11.476;2023-11-21T08:35:37;8.90;99.90
12166;DHT22;6146;48.128;11.476;2023-11-21T08:38:03;9.00;99.90
12166;DHT22;6146;48.128;11.476;2023-11-21T08:40:29;9.10;99.90
12166;DHT22;6146;48.128;11.476;2023-11-21T08:42:55;9.20;99.90
12166;DHT22;6146;48.128;11.476;2023-11-21T08:45:21;9.40;99.90
12166;DHT22;6146;48.128;11.476;2023-11-21T08:47:47;9.50;99.90
12166;DHT22;6146;48.128;11.476;2023-11-21T08:50:13;9.60;99.90
12166;DHT22;6146;48.128;11.476;2023-11-21T08:52:40;9.70;99.90
12166;DHT22;6146;48.128;11.476;2023-11-21T08:55:06;9.90;99.90
12166;DHT22;6146;48.128;11.476;2023-11-21T08:57:38;9.90;99.90
12166;DHT22;6146;48.128;11.476;2023-11-21T09:00:04;10.70;99.90
12166;DHT22;6146;48.128;11.476;2023-11-21T09:02:34;11.20;99.90
12166;DHT22;6146;48.128;11.476;2023-11-21T09:05:00;11.80;99.90
12166;DHT22;6146;48.128;11.476;2023-11-21T09:07:29;12.00;99.90
12166;DHT22;6146;48.128;11.476;2023-11-21T09:09:54;12.40;99.90
12166;DHT22;6146;48.128;11.476;2023-11-21T09:12:20;12.70;99.90
12166;DHT22;6146;48.128;11.476;2023-11-21T09:14:47;13.40;99.90
12166;DHT22;6146;48.128;11.476;2023-11-21T09:17:13;13.60;99.90
12166;DHT22;6146;48.128;11.476;2023-11-21T09:19:40;13.10;99.90
12166;DHT22;6146;48.128;11.476;2023-11-21T09:22:06;12.70;99.90
12166;DHT22;6146;48.128;11.476;2023-11-21T09:24:32;12.30;99.90
12166;DHT22;6146;48.128;11.476;2023-11-21T09:26:58;11.70;99.90
12166;DHT22;6146;48.128;11.476;2023-11-21T09:29:25;11.60;99.90
12166;DHT22;6146;48.128;11.476;2023-11-21T09:31:51;11.70;99.90
12166;DHT22;6146;48.128;11.476;2023-11-21T09:34:17;11.80;99.90
12166;DHT22;6146;48.128;11.476;2023-11-21T09:36:46;12.00;99.90
12166;DHT22;6146;48.128;11.476;2023-11-21T09:39:12;12.20;99.90
12166;DHT22;6146;48.128;11.476;2023-11-21T09:41:55;12.00;99.90
12166;DHT22;6146;48.128;11.476;2023-11-21T09:44:36;11.90;99.90
12166;DHT22;6146;48.128;11.476;2023-11-21T09:47:07;11.90;99.90
12166;DHT22;6146;48.128;11.476;2023-11-21T09:49:37;11.90;99.90
12166;DHT22;6146;48.128;11.476;2023-11-21T09:52:04;12.20;99.90
12166;DHT22;6146;48.128;11.476;2023-11-21T09:54:32;12.40;99.90
12166;DHT22;6146;48.128;11.476;2023-11-21T09:56:59;12.50;99.90
12166;DHT22;6146;48.128;11.476;2023-11-21T09:59:30;12.60;99.90
12166;DHT22;6146;48.128;11.476;2023-11-21T10:01:56;12.60;99.90
12166;DHT22;6146;48.128;11.476;2023-11-21T10:04:23;12.40;99.90
12166;DHT22;6146;48.128;11.476;2023-11-21T10:06:50;12.30;99.90
12166;DHT22;6146;48.128;11.476;2023-11-21T10:09:17;12.10;99.90
12166;DHT22;6146;48.128;11.476;2023-11-21T10:11:45;11.80;99.90
12166;DHT22;6146;48.128;11.476;2023-11-21T10:14:11;11.60;99.90
12166;DHT22;6146;48.128;11.476;2023-11-21T10:16:41;11.80;99.90
12166;DHT22;6146;48.128;11.476;2023-11-21T10:19:10;11.80;99.90
12166;DHT22;6146;48.128;11.476;2023-11-21T10:21:37;11.80;99.90
12166;DHT22;6146;48.128;11.476;2023-11-21T10:24:03;11.70;99.90
12166;DHT22;6146;48.128;11.476;2023-11-21T10:26:28;12.00;99.90
12166;DHT22;6146;48.128;11.476;2023-11-21T10:29:01;12.20;99.90
12166;DHT22;6146;48.128;11.476;2023-11-21T10:31:31;12.30;99.90
12166;DHT22;6146;48.128;11.476;2023-11-21T10:34:18;12.10;99.90
12166;DHT22;6146;48.128;11.476;2023-11-21T10:36:44;12.00;99.90
12166;DHT22;6146;48.128;11.476;2023-11-21T10:39:17;12.00;99.90
12166;DHT22;6146;48.128;11.476;2023-11-21T10:41:47;11.80;99.90
12166;DHT22;6146;48.128;11.476;2023-11-21T10:44:16;11.80;99.90
12166;DHT22;6146;48.128;11.476;2023-11-21T10:46:47;11.70;99.90
12166;DHT22;6146;48.128;11.476;2023-11-21T10:49:18;11.60;99.90
12166;DHT22;6146;48.128;11.476;2023-11-21T10:51:45;11.60;99.90
12166;DHT22;6146;48.128;11.476;2023-11-21T10:54:10;11.30;99.90
12166;DHT22;6146;48.128;11.476;2023-11-21T10:56:39;11.30;99.90
12166;DHT22;6146;48.128;11.476;2023-11-21T10:59:09;11.40;99.90
12166;DHT22;6146;48.128;11.476;2023-11-21T11:01:36;11.40;99.90
12166;DHT22;6146;48.128;11.476;2023-11-21T11:04:06;11.40;99.90
12166;DHT22;6146;48.128;11.476;2023-11-21T11:06:34;11.30;99.90
12166;DHT22;6146;48.128;11.476;2023-11-21T11:09:01;11.60;99.90
12166;DHT22;6146;48.128;11.476;2023-11-21T11:11:28;11.60;99.90
12166;DHT22;6146;48.128;11.476;2023-11-21T11:13:55;11.50;99.90
12166;DHT22;6146;48.128;11.476;2023-11-21T11:16:22;11.50;99.90
12166;DHT22;6146;48.128;11.476;2023-11-21T11:18:50;11.50;99.90
12166;DHT22;6146;48.128;11.476;2023-11-21T11:27:15;11.60;99.90
12166;DHT22;6146;48.128;11.476;2023-11-21T11:35:42;12.10;99.90
12166;DHT22;6146;48.128;11.476;2023-11-21T11:38:12;12.40;99.90
12166;DHT22;6146;48.128;11.476;2023-11-21T11:40:45;12.60;99.90
12166;DHT22;6146;48.128;11.476;2023-11-21T11:43:11;12.70;99.90
12166;DHT22;6146;48.128;11.476;2023-11-21T11:45:37;12.60;99.90
12166;DHT22;6146;48.128;11.476;2023-11-21T11:48:11;12.40;99.90
12166;DHT22;6146;48.128;11.476;2023-11-21T11:50:53;12.20;99.90
12166;DHT22;6146;48.128;11.476;2023-11-21T11:53:33;11.90;99.90
12166;DHT22;6146;48.128;11.476;2023-11-21T11:56:27;11.70;99.90
12166;DHT22;6146;48.128;11.476;2023-11-21T11:58:55;11.60;99.90
12166;DHT22;6146;48.128;11.476;2023-11-21T12:01:22;11.70;99.90
12166;DHT22;6146;48.128;11.476;2023-11-21T12:06:42;11.70;99.90
12166;DHT22;6146;48.128;11.476;2023-11-21T12:09:23;11.60;99.90
12166;DHT22;6146;48.128;11.476;2023-11-21T12:11:50;11.50;99.90
12166;DHT22;6146;48.128;11.476;2023-11-21T12:14:16;11.50;99.90
12166;DHT22;6146;48.128;11.476;2023-11-21T12:16:42;11.30;99.90
12166;DHT22;6146;48.128;11.476;2023-11-21T12:19:12;11.30;99.90
12166;DHT22;6146;48.128;11.476;2023-11-21T12:21:38;11.50;99.90
12166;DHT22;6146;48.128;11.476;2023-11-21T12:24:04;11.70;99.90
12166;DHT22;6146;48.128;11.476;2023-11-21T12:26:34;11.80;99.90
12166;DHT22;6146;48.128;11.476;2023-11-21T12:29:00;12.00;99.90
12166;DHT22;6146;48.128;11.476;2023-11-21T12:31:26;12.20;99.90
12166;DHT22;6146;48.128;11.476;2023-11-21T12:33:54;12.40;99.90
12166;DHT22;6146;48.128;11.476;2023-11-21T12:36:19;12.40;99.90
12166;DHT22;6146;48.128;11.476;2023-11-21T12:38:45;12.50;99.90
12166;DHT22;6146;48.128;11.476;2023-11-21T12:41:11;12.50;99.90
12166;DHT22;6146;48.128;11.476;2023-11-21T12:43:36;12.40;99.90
12166;DHT22;6146;48.128;11.476;2023-11-21T12:46:10;12.60;99.90
12166;DHT22;6146;48.128;11.476;2023-11-21T12:48:39;12.80;99.90
12166;DHT22;6146;48.128;11.476;2023-11-21T12:51:07;12.80;99.90
12166;DHT22;6146;48.128;11.476;2023-11-21T12:53:33;12.70;99.90
12166;DHT22;6146;48.128;11.476;2023-11-21T12:56:07;12.30;99.90
12166;DHT22;6146;48.128;11.476;2023-11-21T12:58:37;11.90;99.90
12166;DHT22;6146;48.128;11.476;2023-11-21T13:01:06;11.70;99.90
12166;DHT22;6146;48.128;11.476;2023-11-21T13:03:37;11.70;99.90
12166;DHT22;6146;48.128;11.476;2023-11-21T13:06:04;11.50;99.90
12166;DHT22;6146;48.128;11.476;2023-11-21T13:08:30;11.40;99.90
12166;DHT22;6146;48.128;11.476;2023-11-21T13:10:56;11.20;99.90
12166;DHT22;6146;48.128;11.476;2023-11-21T13:13:23;11.10;99.90
12166;DHT22;6146;48.128;11.476;2023-11-21T13:15:52;11.00;99.90
12166;DHT22;6146;48.128;11.476;2023-11-21T13:18:18;11.00;99.90
12166;DHT22;6146;48.128;11.476;2023-11-21T13:20:44;11.10;99.90
12166;DHT22;6146;48.128;11.476;2023-11-21T13:23:10;11.20;99.90
12166;DHT22;6146;48.128;11.476;2023-11-21T13:25:42;11.30;99.90
12166;DHT22;6146;48.128;11.476;2023-11-21T13:28:08;11.30;99.90
12166;DHT22;6146;48.128;11.476;2023-11-21T13:30:35;11.40;99.90
12166;DHT22;6146;48.128;11.476;2023-11-21T13:33:05;11.40;99.90
12166;DHT22;6146;48.128;11.476;2023-11-21T13:35:36;11.40;99.90
12166;DHT22;6146;48.128;11.476;2023-11-21T13:38:13;11.40;99.90
12166;DHT22;6146;48.128;11.476;2023-11-21T13:40:40;11.40;99.90
12166;DHT22;6146;48.128;11.476;2023-11-21T13:43:13;11.40;99.90
12166;DHT22;6146;48.128;11.476;2023-11-21T13:45:40;11.50;99.90
12166;DHT22;6146;48.128;11.476;2023-11-21T13:48:06;11.60;99.90
12166;DHT22;6146;48.128;11.476;2023-11-21T13:50:45;11.70;99.90
12166;DHT22;6146;48.128;11.476;2023-11-21T13:53:29;11.90;99.90
12166;DHT22;6146;48.128;11.476;2023-11-21T13:55:54;12.20;99.90
12166;DHT22;6146;48.128;11.476;2023-11-21T13:58:25;12.30;99.90
12166;DHT22;6146;48.128;11.476;2023-11-21T14:01:10;12.40;99.90
12166;DHT22;6146;48.128;11.476;2023-11-21T14:04:00;12.40;99.90
12166;DHT22;6146;48.128;11.476;2023-11-21T14:06:42;12.50;99.90
12166;DHT22;6146;48.128;11.476;2023-11-21T14:09:24;12.60;99.90
12166;DHT22;6146;48.128;11.476;2023-11-21T14:11:55;12.50;99.90
12166;DHT22;6146;48.128;11.476;2023-11-21T14:14:24;12.00;99.90
12166;DHT22;6146;48.128;11.476;2023-11-21T14:16:51;11.60;99.90
12166;DHT22;6146;48.128;11.476;2023-11-21T14:19:17;11.30;99.90
12166;DHT22;6146;48.128;11.476;2023-11-21T14:21:44;10.70;99.90
12166;DHT22;6146;48.128;11.476;2023-11-21T14:24:10;10.10;99.90
12166;DHT22;6146;48.128;11.476;2023-11-21T14:26:41;9.70;99.90
12166;DHT22;6146;48.128;11.476;2023-11-21T14:29:08;9.50;99.90
12166;DHT22;6146;48.128;11.476;2023-11-21T14:31:34;9.40;99.90
12166;DHT22;6146;48.128;11.476;2023-11-21T14:34:00;9.10;99.90
12166;DHT22;6146;48.128;11.476;2023-11-21T14:36:28;9.00;99.90
12166;DHT22;6146;48.128;11.476;2023-11-21T14:38:54;8.90;99.90
12166;DHT22;6146;48.128;11.476;2023-11-21T14:41:19;8.80;99.90
12166;DHT22;6146;48.128;11.476;2023-11-21T14:43:45;8.80;99.90
12166;DHT22;6146;48.128;11.476;2023-11-21T14:46:13;8.80;99.90
12166;DHT22;6146;48.128;11.476;2023-11-21T14:48:42;8.80;99.90
12166;DHT22;6146;48.128;11.476;2023-11-21T14:51:11;8.80;99.90
12166;DHT22;6146;48.128;11.476;2023-11-21T14:53:56;8.80;99.90
12166;DHT22;6146;48.128;11.476;2023-11-21T14:56:26;8.80;99.90
12166;DHT22;6146;48.128;11.476;2023-11-21T14:58:57;8.70;99.90
12166;DHT22;6146;48.128;11.476;2023-11-21T15:01:23;8.60;99.90
12166;DHT22;6146;48.128;11.476;2023-11-21T15:04:08;8.60;99.90
12166;DHT22;6146;48.128;11.476;2023-11-21T15:06:40;8.70;99.90
12166;DHT22;6146;48.128;11.476;2023-11-21T15:09:08;8.60;99.90
12166;DHT22;6146;48.128;11.476;2023-11-21T15:11:53;8.60;99.90
12166;DHT22;6146;48.128;11.476;2023-11-21T15:14:23;8.50;99.90
12166;DHT22;6146;48.128;11.476;2023-11-21T15:16:51;8.50;99.90
12166;DHT22;6146;48.128;11.476;2023-11-21T15:19:18;8.50;99.90
12166;DHT22;6146;48.128;11.476;2023-11-21T15:21:50;8.50;99.90
12166;DHT22;6146;48.128;11.476;2023-11-21T15:24:15;8.40;99.90
12166;DHT22;6146;48.128;11.476;2023-11-21T15:26:41;8.40;99.90
12166;DHT22;6146;48.128;11.476;2023-11-21T15:29:07;8.30;99.90
12166;DHT22;6146;48.128;11.476;2023-11-21T15:31:33;8.30;99.90
12166;DHT22;6146;48.128;11.476;2023-11-21T15:33:58;8.30;99.90
12166;DHT22;6146;48.128;11.476;2023-11-21T15:36:27;8.30;99.90
12166;DHT22;6146;48.128;11.476;2023-11-21T15:38:53;8.30;99.90
12166;DHT22;6146;48.128;11.476;2023-11-21T15:41:19;8.30;99.90
12166;DHT22;6146;48.128;11.476;2023-11-21T15:43:45;8.20;99.90
12166;DHT22;6146;48.128;11.476;2023-11-21T15:46:10;8.20;99.90
12166;DHT22;6146;48.128;11.476;2023-11-21T15:48:36;8.20;99.90
12166;DHT22;6146;48.128;11.476;2023-11-21T15:51:06;8.20;99.90
12166;DHT22;6146;48.128;11.476;2023-11-21T15:53:33;8.20;99.90
12166;DHT22;6146;48.128;11.476;2023-11-21T15:55:59;8.20;99.90